createdAt,value
2018-09-14T00:07:09.621Z,99.90
2018-09-14T00:17:10.879Z,99.90
2018-09-14T00:27:12.136Z,99.90
2018-09-14T00:37:13.401Z,99.90
2018-09-14T00:47:14.670Z,99.90
2018-09-14T00:57:16.706Z,99.90
2018-09-14T01:07:17.982Z,99.90
2018-09-14T01:17:20.102Z,99.90
2018-09-14T01:27:21.550Z,99.90
2018-09-14T01:37:22.799Z,99.90
2018-09-14T01:47:24.058Z,99.90
2018-09-14T01:57:25.310Z,99.90
2018-09-14T02:07:26.816Z,99.90
2018-09-14T02:17:28.311Z,99.90
2018-09-14T02:27:29.849Z,99.90
2018-09-14T02:37:31.115Z,99.90
2018-09-14T02:47:32.407Z,99.90
2018-09-14T02:57:34.451Z,99.90
2018-09-14T03:07:35.712Z,99.90
2018-09-14T03:17:36.959Z,99.90
2018-09-14T03:27:38.200Z,99.90
2018-09-14T03:37:39.437Z,99.90
2018-09-14T03:47:40.690Z,99.90
2018-09-14T03:57:41.963Z,99.90
2018-09-14T04:07:44.434Z,99.90
2018-09-14T04:27:52.000Z,99.90
2018-09-14T04:37:54.285Z,99.90
2018-09-14T04:47:55.559Z,99.90
2018-09-14T04:57:56.788Z,99.90
2018-09-14T05:07:58.036Z,99.90
2018-09-14T05:17:59.286Z,99.90
2018-09-14T05:28:00.552Z,99.90
2018-09-14T05:38:01.825Z,99.90
2018-09-14T05:48:03.082Z,99.90
2018-09-14T05:58:05.140Z,99.90
2018-09-14T06:08:06.695Z,99.90
2018-09-14T06:18:08.787Z,99.90
2018-09-14T06:28:10.129Z,99.90
2018-09-14T06:38:11.546Z,99.90
2018-09-14T06:48:12.757Z,99.90
2018-09-14T06:58:14.003Z,99.90
2018-09-14T07:08:16.022Z,99.90
2018-09-14T07:18:17.272Z,99.90
2018-09-14T07:28:18.523Z,99.90
2018-09-14T07:38:20.053Z,99.90
2018-09-14T07:48:24.838Z,99.90
2018-09-14T07:58:26.255Z,94.80
2018-09-14T08:08:28.726Z,91.90
2018-09-14T08:18:30.329Z,83.90
2018-09-14T08:28:32.001Z,78.40
2018-09-14T08:38:33.253Z,74.80
2018-09-14T08:48:34.514Z,73.90
2018-09-14T08:58:35.748Z,71.00
2018-09-14T09:08:37.020Z,69.30
2018-09-14T09:18:38.338Z,68.40
2018-09-14T09:28:39.582Z,66.10
2018-09-14T09:38:41.860Z,59.60
2018-09-14T09:48:43.123Z,58.90
2018-09-14T09:58:44.389Z,57.90
2018-09-14T10:08:46.418Z,54.50
2018-09-14T10:18:47.969Z,54.40
2018-09-14T10:28:49.263Z,58.70
2018-09-14T10:38:50.498Z,50.70
2018-09-14T10:48:52.556Z,48.70
2018-09-14T10:58:53.841Z,48.60
2018-09-14T11:08:55.098Z,53.50
2018-09-14T11:18:57.457Z,57.30
2018-09-14T11:28:58.762Z,57.30
2018-09-14T11:39:00.115Z,56.50
2018-09-14T11:59:09.095Z,56.70
2018-09-14T12:09:10.667Z,58.50
2018-09-14T12:19:12.244Z,61.80
2018-09-14T12:29:13.495Z,61.70
2018-09-14T12:39:14.778Z,59.60
2018-09-14T12:49:16.153Z,59.90
2018-09-14T12:59:17.450Z,62.20
2018-09-14T13:09:18.727Z,57.50
2018-09-14T13:19:21.057Z,58.40
2018-09-14T13:29:22.552Z,58.40
2018-09-14T13:39:27.956Z,59.30
2018-09-14T13:49:29.366Z,61.70
2018-09-14T13:59:30.774Z,61.00
2018-09-14T14:09:32.544Z,63.00
2018-09-14T14:19:34.100Z,66.10
2018-09-14T14:29:35.561Z,67.80
2018-09-14T14:39:36.869Z,76.50
2018-09-14T14:49:38.261Z,94.90
2018-09-14T14:59:40.053Z,99.90
2018-09-14T15:09:42.187Z,99.90
2018-09-14T15:19:46.586Z,99.90
2018-09-14T15:29:47.866Z,99.90
2018-09-14T15:39:55.135Z,99.90
2018-09-14T15:49:57.416Z,99.90
2018-09-14T15:59:59.913Z,99.90
2018-09-14T16:10:04.721Z,99.90
2018-09-14T16:20:06.414Z,99.90
2018-09-14T16:30:07.775Z,99.90
2018-09-14T16:40:10.381Z,99.90
2018-09-14T16:50:12.431Z,99.90
2018-09-14T17:00:13.683Z,99.90
2018-09-14T17:10:15.749Z,99.90
2018-09-14T17:30:24.749Z,99.90
2018-09-14T17:40:28.732Z,99.90
2018-09-14T17:50:31.018Z,99.90
2018-09-14T18:00:33.865Z,99.90
2018-09-14T18:10:36.069Z,99.90
2018-09-14T18:20:39.266Z,99.90
2018-09-14T18:30:40.650Z,99.90
2018-09-14T18:40:42.105Z,99.90
2018-09-14T18:50:44.114Z,99.90
2018-09-14T19:00:46.172Z,99.90
2018-09-14T19:10:48.488Z,99.90
2018-09-14T19:20:50.574Z,99.90
2018-09-14T19:30:52.049Z,99.90
2018-09-14T19:40:54.582Z,99.90
2018-09-14T19:50:56.714Z,99.90
2018-09-14T20:00:58.024Z,99.90
2018-09-14T20:11:00.098Z,99.90
2018-09-14T20:21:01.414Z,99.90
2018-09-14T20:31:04.423Z,99.90
2018-09-14T20:41:06.929Z,99.90
2018-09-14T20:51:08.210Z,99.90
2018-09-14T21:01:09.601Z,99.90
2018-09-14T21:11:11.728Z,99.90
2018-09-14T21:21:13.881Z,99.90
2018-09-14T21:31:15.787Z,99.90
2018-09-14T21:41:17.054Z,99.90
2018-09-14T21:51:19.034Z,99.90
2018-09-14T22:01:20.624Z,99.90
2018-09-14T22:11:22.433Z,99.90
2018-09-14T22:21:25.014Z,99.90
2018-09-14T22:31:27.107Z,99.90
2018-09-14T22:41:28.463Z,99.90
2018-09-14T22:51:30.070Z,99.90
2018-09-14T23:01:32.327Z,99.90
2018-09-14T23:11:34.340Z,99.90
2018-09-14T23:21:36.372Z,99.90
2018-09-14T23:31:37.622Z,99.90
2018-09-14T23:41:39.212Z,99.90
2018-09-14T23:51:40.475Z,99.90
